createdAt,value
2019-04-29T00:01:28.242Z,101048.22
2019-04-29T00:06:33.770Z,101043.08
2019-04-29T00:11:36.400Z,101043.83
2019-04-29T00:16:48.278Z,101043.48
2019-04-29T00:21:51.130Z,101027.19
2019-04-29T00:26:53.727Z,101027.19
2019-04-29T00:31:58.514Z,101038.79
2019-04-29T00:37:14.478Z,101042.53
2019-04-29T00:42:27.437Z,101049.28
2019-04-29T00:47:31.287Z,101049.51
2019-04-29T00:52:36.960Z,101042.83
2019-04-29T00:57:42.575Z,101047.81
2019-04-29T01:02:46.800Z,101054.02
2019-04-29T01:07:49.743Z,101060.19
2019-04-29T01:12:54.512Z,101058.08
2019-04-29T01:18:04.297Z,101048.94
2019-04-29T01:23:14.555Z,101063.23
2019-04-29T01:28:27.817Z,101055.44
2019-04-29T01:33:39.796Z,101054.09
2019-04-29T01:38:52.208Z,101060.20
2019-04-29T01:44:26.659Z,101054.41
2019-04-29T01:49:38.401Z,101054.20
2019-04-29T01:54:51.851Z,101057.89
2019-04-29T02:00:06.755Z,101059.44
2019-04-29T02:05:18.085Z,101059.77
2019-04-29T02:15:47.379Z,101063.22
2019-04-29T02:20:57.323Z,101066.66
2019-04-29T02:26:10.645Z,101072.02
2019-04-29T02:31:33.650Z,101068.17
2019-04-29T02:36:55.722Z,101062.75
2019-04-29T02:42:20.311Z,101068.25
2019-04-29T02:47:26.406Z,101063.31
2019-04-29T02:53:10.650Z,101065.41
2019-04-29T02:58:58.625Z,101067.45
2019-04-29T03:04:36.579Z,101066.66
2019-04-29T03:10:03.816Z,101064.52
2019-04-29T03:15:26.053Z,101061.55
2019-04-29T03:21:12.679Z,101062.31
2019-04-29T03:26:35.714Z,101063.73
2019-04-29T03:31:59.185Z,101068.11
2019-04-29T03:38:01.185Z,101056.10
2019-04-29T03:43:02.859Z,101058.17
2019-04-29T03:48:06.136Z,101058.86
2019-04-29T03:53:19.246Z,101061.39
2019-04-29T03:58:30.653Z,101066.50
2019-04-29T04:03:38.223Z,101071.11
2019-04-29T04:08:44.590Z,101080.39
2019-04-29T04:13:47.231Z,101090.35
2019-04-29T04:18:51.437Z,101080.69
2019-04-29T04:23:57.964Z,101085.13
2019-04-29T04:28:58.189Z,101099.45
2019-04-29T04:34:00.510Z,101099.91
2019-04-29T04:39:10.106Z,101106.12
2019-04-29T04:44:44.285Z,101104.09
2019-04-29T04:50:01.045Z,101112.93
2019-04-29T04:55:00.724Z,101114.09
2019-04-29T05:00:06.750Z,101117.66
2019-04-29T05:05:09.263Z,101119.92
2019-04-29T05:10:19.553Z,101127.98
2019-04-29T05:15:22.101Z,101129.16
2019-04-29T05:20:24.641Z,101138.57
2019-04-29T05:25:31.218Z,101141.16
2019-04-29T05:30:33.403Z,101147.84
2019-04-29T05:35:48.746Z,101148.79
2019-04-29T05:40:51.946Z,101151.21
2019-04-29T05:46:24.567Z,101153.47
2019-04-29T05:51:47.725Z,101156.47
2019-04-29T05:56:59.257Z,101160.22
2019-04-29T06:02:33.678Z,101171.61
2019-04-29T06:07:41.754Z,101168.87
2019-04-29T06:12:47.798Z,101164.81
2019-04-29T06:17:54.952Z,101170.78
2019-04-29T06:23:19.050Z,101175.45
2019-04-29T06:28:46.888Z,101178.41
2019-04-29T06:34:03.200Z,101183.13
2019-04-29T06:39:13.398Z,101180.75
2019-04-29T06:44:40.394Z,101186.48
2019-04-29T06:50:11.598Z,101190.28
2019-04-29T06:55:25.775Z,101187.03
2019-04-29T07:00:42.560Z,101187.80
2019-04-29T07:06:27.791Z,101181.34
2019-04-29T07:12:02.078Z,101181.45
2019-04-29T07:17:28.049Z,101188.14
2019-04-29T07:23:02.997Z,101171.22
2019-04-29T07:28:20.431Z,101168.09
2019-04-29T07:33:44.318Z,101168.09
2019-04-29T07:39:50.065Z,101172.69
2019-04-29T07:51:41.239Z,101166.31
2019-04-29T07:57:12.481Z,101166.06
2019-04-29T08:03:15.430Z,101164.83
2019-04-29T08:09:20.630Z,101164.83
2019-04-29T08:15:31.746Z,101161.41
2019-04-29T08:21:15.989Z,101159.70
2019-04-29T08:27:15.861Z,101152.34
2019-04-29T08:39:11.871Z,101148.84
2019-04-29T09:10:28.373Z,101130.70
2019-04-29T09:28:27.145Z,101117.09
2019-04-29T09:34:26.802Z,101112.63
2019-04-29T09:40:35.784Z,101118.81
2019-04-29T09:57:36.139Z,101112.06
2019-04-29T10:21:36.106Z,101075.27
2019-04-29T10:27:00.203Z,101095.44
2019-04-29T10:32:54.787Z,101079.58
2019-04-29T10:38:33.087Z,101082.29
2019-04-29T10:44:19.661Z,101080.48
2019-04-29T10:50:24.764Z,101066.86
2019-04-29T10:56:05.547Z,101060.94
2019-04-29T11:02:13.654Z,101055.05
2019-04-29T11:19:10.977Z,101027.83
2019-04-29T11:25:23.991Z,101015.25
2019-04-29T11:31:14.395Z,101001.77
2019-04-29T11:37:13.764Z,100996.09
2019-04-29T11:42:43.210Z,100986.95
2019-04-29T11:48:22.871Z,100976.78
2019-04-29T12:00:25.742Z,100969.45
2019-04-29T12:05:46.153Z,100957.75
2019-04-29T12:17:33.168Z,100950.34
2019-04-29T12:23:15.760Z,100943.91
2019-04-29T12:28:56.174Z,100940.24
2019-04-29T12:34:39.257Z,100929.75
2019-04-29T12:40:19.462Z,100916.34
2019-04-29T12:46:17.686Z,100920.06
2019-04-29T13:29:35.812Z,100871.14
2019-04-29T14:08:14.762Z,100850.23
2019-04-29T14:18:35.075Z,100834.45
2019-04-29T15:05:34.524Z,100818.71
2019-04-29T15:17:44.701Z,100831.58
2019-04-29T15:42:59.431Z,100843.57
2019-04-29T15:54:35.558Z,100853.08
2019-04-29T16:06:19.286Z,100859.74
2019-04-29T16:11:36.630Z,100869.75
2019-04-29T16:16:52.215Z,100866.22
2019-04-29T16:22:19.791Z,100873.50
2019-04-29T16:27:48.924Z,100873.27
2019-04-29T16:33:13.910Z,100867.28
2019-04-29T16:38:31.313Z,100869.80
2019-04-29T16:44:01.675Z,100870.23
2019-04-29T16:49:19.246Z,100868.38
2019-04-29T16:54:33.912Z,100878.41
2019-04-29T16:59:54.000Z,100875.37
2019-04-29T17:05:16.069Z,100868.86
2019-04-29T17:10:50.063Z,100861.64
2019-04-29T17:16:03.017Z,100859.34
2019-04-29T17:21:24.695Z,100847.34
2019-04-29T17:27:19.552Z,100838.73
2019-04-29T17:33:27.778Z,100830.89
2019-04-29T17:35:13.886Z,100860.34
2019-04-29T17:38:50.827Z,100836.61
2019-04-29T17:44:34.301Z,100843.37
2019-04-29T17:50:29.946Z,100845.94
2019-04-29T17:56:06.398Z,100834.97
2019-04-29T18:01:36.813Z,100845.46
2019-04-29T18:12:27.503Z,100850.81
2019-04-29T18:18:00.280Z,100825.47
2019-04-29T18:23:11.211Z,100831.41
2019-04-29T18:28:32.790Z,100838.53
2019-04-29T19:29:06.270Z,100867.72
2019-04-29T19:40:42.831Z,100881.02
2019-04-29T19:46:59.007Z,100881.70
2019-04-29T19:52:45.792Z,100879.17
2019-04-29T19:57:59.592Z,100829.86
2019-04-29T20:45:35.345Z,100894.69
2019-04-29T20:50:40.819Z,100898.98
2019-04-29T20:55:49.791Z,100902.20
2019-04-29T21:01:02.823Z,100896.88
2019-04-29T21:06:03.149Z,100907.70
2019-04-29T21:11:16.134Z,100896.53
2019-04-29T21:16:29.142Z,100896.14
2019-04-29T21:21:36.769Z,100893.66
2019-04-29T21:27:09.338Z,100896.02
2019-04-29T21:32:45.488Z,100894.03
2019-04-29T21:38:47.039Z,100893.04
2019-04-29T21:44:14.999Z,100895.63
2019-04-29T21:49:45.307Z,100900.95
2019-04-29T21:54:54.606Z,100898.66
2019-04-29T22:00:15.632Z,100898.78
2019-04-29T22:05:36.281Z,100896.59
2019-04-29T22:11:07.441Z,100896.59
2019-04-29T22:16:28.641Z,100900.84
2019-04-29T22:21:57.191Z,100899.73
2019-04-29T22:27:16.190Z,100892.80
2019-04-29T22:32:58.054Z,100909.05
2019-04-29T22:38:18.706Z,100915.02
2019-04-29T22:43:48.277Z,100911.34
2019-04-29T22:49:06.797Z,100913.98
2019-04-29T22:54:17.691Z,100909.14
2019-04-29T22:59:22.990Z,100902.98
2019-04-29T23:04:42.206Z,100905.31
2019-04-29T23:09:57.530Z,100901.97
2019-04-29T23:15:10.057Z,100907.89
2019-04-29T23:20:45.546Z,100900.50
2019-04-29T23:25:59.866Z,100905.31
2019-04-29T23:31:13.627Z,100902.39
2019-04-29T23:36:31.728Z,100898.78
